Time;durP1;ratioP1;P1;durP2;ratioP2;P2;SDS_P1;SDS_P2;PMS_P1;PMS_P2;Temp;Humidity;BMP_temperature;BMP_pressure;BME280_temperature;BME280_humidity;BME280_pressure;Samples;Min_cycle;Max_cycle;Signal;HPM_P1;HPM_P2
2022/07/10 00:00:13;;;;;;;8.48;1.67;;;14.10;99.90;;;;;;4959471;28;20053;-74
2022/07/10 00:02:40;;;;;;;9.85;2.03;;;14.10;99.90;;;;;;4995746;28;20058;-75
2022/07/10 00:05:07;;;;;;;11.65;1.63;;;14.10;99.90;;;;;;4978746;28;20042;-78
2022/07/10 00:07:33;;;;;;;10.00;1.65;;;14.10;99.90;;;;;;4995489;28;20042;-74
2022/07/10 00:09:59;;;;;;;7.57;1.95;;;14.00;99.90;;;;;;4979376;28;20451;-74
2022/07/10 00:12:25;;;;;;;8.00;1.40;;;14.00;99.90;;;;;;4980240;28;20637;-76
2022/07/10 00:14:52;;;;;;;5.93;1.50;;;14.00;99.90;;;;;;4959343;28;20137;-78
2022/07/10 00:17:17;;;;;;;6.63;1.48;;;14.00;99.90;;;;;;4977141;28;20566;-80
2022/07/10 00:19:43;;;;;;;19.55;2.25;;;14.00;99.90;;;;;;4976413;28;20049;-78
2022/07/10 00:22:09;;;;;;;7.70;1.70;;;14.00;99.90;;;;;;4981979;28;20097;-75
2022/07/10 00:24:35;;;;;;;8.60;2.15;;;14.00;99.90;;;;;;4943352;28;20542;-73
2022/07/10 00:27:01;;;;;;;12.07;1.70;;;13.90;99.90;;;;;;4981798;28;20049;-74
2022/07/10 00:29:27;;;;;;;8.25;1.60;;;13.90;99.90;;;;;;4958885;28;20056;-79
2022/07/10 00:31:53;;;;;;;9.07;1.85;;;13.90;99.90;;;;;;4963397;28;20095;-77
2022/07/10 00:34:18;;;;;;;10.20;1.75;;;14.00;99.90;;;;;;4959242;28;20570;-77
2022/07/10 00:36:44;;;;;;;7.10;1.50;;;14.00;99.90;;;;;;4962619;28;20635;-78
2022/07/10 00:39:10;;;;;;;11.07;1.92;;;14.00;99.90;;;;;;4947762;28;20057;-78
2022/07/10 00:41:37;;;;;;;8.60;1.77;;;14.00;99.90;;;;;;4963191;28;20134;-77
2022/07/10 00:44:03;;;;;;;8.00;1.60;;;14.00;99.90;;;;;;4957650;28;20609;-74
2022/07/10 00:46:30;;;;;;;11.05;1.73;;;14.00;99.90;;;;;;4963776;28;20049;-74
2022/07/10 00:48:56;;;;;;;9.57;2.15;;;14.00;99.90;;;;;;4961310;28;20132;-76
2022/07/10 00:51:25;;;;;;;11.50;2.13;;;14.00;99.90;;;;;;4946056;28;20115;-77
2022/07/10 00:53:51;;;;;;;10.95;1.88;;;14.00;99.90;;;;;;4947383;28;20520;-76
2022/07/10 00:56:20;;;;;;;10.07;2.38;;;14.00;99.90;;;;;;4965130;28;20049;-74
2022/07/10 00:58:47;;;;;;;8.18;1.77;;;13.90;99.90;;;;;;4975037;28;20212;-74
2022/07/10 01:01:13;;;;;;;13.52;2.00;;;13.90;99.90;;;;;;4966144;28;20045;-77
2022/07/10 01:03:39;;;;;;;11.93;2.03;;;13.90;99.90;;;;;;4986001;28;20081;-75
2022/07/10 01:06:05;;;;;;;9.68;2.00;;;13.90;99.90;;;;;;4988410;28;20096;-76
2022/07/10 01:08:32;;;;;;;9.85;1.90;;;13.80;99.90;;;;;;4968198;28;20582;-76
2022/07/10 01:10:58;;;;;;;14.07;2.15;;;13.80;99.90;;;;;;4971718;28;20152;-74
2022/07/10 01:13:24;;;;;;;10.75;1.75;;;13.80;99.90;;;;;;5004422;28;20068;-76
2022/07/10 01:15:52;;;;;;;13.88;1.90;;;13.70;99.90;;;;;;4989608;28;20616;-76
2022/07/10 01:18:18;;;;;;;11.60;1.80;;;13.70;99.90;;;;;;4970953;28;20046;-76
2022/07/10 01:20:44;;;;;;;7.70;1.50;;;13.70;99.90;;;;;;4986548;28;20066;-76
2022/07/10 01:23:10;;;;;;;13.18;1.48;;;13.70;99.90;;;;;;4986632;28;20046;-73
2022/07/10 01:25:36;;;;;;;10.45;1.80;;;13.60;99.90;;;;;;4981494;28;20050;-76
2022/07/10 01:28:02;;;;;;;5.13;1.20;;;13.60;99.90;;;;;;4991311;28;20072;-77
2022/07/10 01:30:27;;;;;;;9.00;1.63;;;13.60;99.90;;;;;;4985337;28;20054;-78
2022/07/10 01:32:53;;;;;;;8.50;1.80;;;13.60;99.90;;;;;;4976912;28;20046;-77
2022/07/10 01:35:19;;;;;;;10.02;1.70;;;13.60;99.90;;;;;;4995587;28;20080;-77
2022/07/10 01:37:45;;;;;;;9.02;1.35;;;13.50;99.90;;;;;;4945396;28;20403;-77
2022/07/10 01:40:11;;;;;;;10.90;1.70;;;13.50;99.90;;;;;;4948849;28;20046;-76
2022/07/10 01:42:38;;;;;;;8.70;1.48;;;13.50;99.90;;;;;;4980941;28;20050;-77
2022/07/10 01:45:08;;;;;;;8.98;1.73;;;13.40;99.90;;;;;;4946040;28;20046;-75
2022/07/10 01:47:34;;;;;;;8.15;1.48;;;13.40;99.90;;;;;;4981890;28;20055;-77
2022/07/10 01:50:00;;;;;;;6.53;1.40;;;13.30;99.90;;;;;;4959783;28;20050;-76
2022/07/10 01:52:26;;;;;;;8.77;1.95;;;13.30;99.90;;;;;;4967562;28;20057;-75
2022/07/10 01:54:52;;;;;;;8.82;1.40;;;13.30;99.90;;;;;;4979896;28;20053;-77
2022/07/10 01:57:18;;;;;;;6.93;1.30;;;13.30;99.90;;;;;;4979190;28;20049;-75
2022/07/10 01:59:44;;;;;;;6.88;1.75;;;13.20;99.90;;;;;;4929581;28;20056;-76
2022/07/10 02:02:10;;;;;;;7.35;1.40;;;13.20;99.90;;;;;;4958635;28;20077;-77
2022/07/10 02:04:42;;;;;;;9.20;1.55;;;13.20;99.90;;;;;;4961230;28;20076;-75
2022/07/10 02:07:12;;;;;;;8.03;1.60;;;13.10;99.90;;;;;;4972248;28;20136;-75
2022/07/10 02:09:39;;;;;;;8.23;1.75;;;13.10;99.90;;;;;;4973378;28;20057;-77
2022/07/10 02:12:07;;;;;;;8.07;1.88;;;13.10;99.90;;;;;;4978939;28;20140;-77
2022/07/10 02:14:33;;;;;;;7.78;1.45;;;13.10;99.90;;;;;;4980824;28;20054;-78
2022/07/10 02:16:59;;;;;;;6.15;1.33;;;13.00;99.90;;;;;;4973867;28;20054;-78
2022/07/10 02:19:24;;;;;;;10.30;1.88;;;13.00;99.90;;;;;;4958733;28;20994;-74
2022/07/10 02:21:51;;;;;;;9.15;2.00;;;13.00;99.90;;;;;;4972530;28;20509;-78
2022/07/10 02:24:17;;;;;;;12.55;2.03;;;13.00;99.90;;;;;;4964669;28;20057;-75
2022/07/10 02:26:43;;;;;;;9.38;1.98;;;13.00;99.90;;;;;;4980904;28;20476;-77
2022/07/10 02:29:09;;;;;;;10.65;2.15;;;13.00;99.90;;;;;;4982818;28;20447;-76
2022/07/10 02:31:40;;;;;;;10.30;1.77;;;13.00;99.90;;;;;;4950160;28;20054;-76
2022/07/10 02:34:07;;;;;;;9.90;2.15;;;13.00;99.90;;;;;;4986398;28;20508;-78
2022/07/10 02:36:33;;;;;;;10.95;2.00;;;13.00;99.90;;;;;;4981423;28;20144;-78
2022/07/10 02:38:59;;;;;;;7.13;1.70;;;13.00;99.90;;;;;;4985794;28;20046;-75
2022/07/10 02:41:25;;;;;;;5.88;1.70;;;13.00;99.90;;;;;;4984273;28;20095;-75
2022/07/10 02:43:51;;;;;;;9.40;1.73;;;13.00;99.90;;;;;;4965996;28;20803;-75
2022/07/10 02:46:17;;;;;;;8.55;1.70;;;13.00;99.90;;;;;;4978330;28;20440;-75
2022/07/10 02:48:43;;;;;;;8.38;1.63;;;13.10;99.90;;;;;;4981219;28;20081;-76
2022/07/10 02:51:08;;;;;;;10.65;1.95;;;13.10;99.90;;;;;;4965024;28;20045;-76
2022/07/10 02:53:34;;;;;;;14.75;1.90;;;13.10;99.90;;;;;;4983298;28;20049;-75
2022/07/10 02:56:00;;;;;;;5.47;1.45;;;13.10;99.90;;;;;;4980524;28;20091;-76
2022/07/10 02:58:27;;;;;;;7.95;1.77;;;13.10;99.90;;;;;;4984681;28;20057;-73
2022/07/10 03:00:53;;;;;;;10.25;1.83;;;13.10;99.90;;;;;;4963993;28;20125;-74
2022/07/10 03:03:19;;;;;;;8.85;2.13;;;13.10;99.90;;;;;;4974471;28;20660;-75
2022/07/10 03:05:45;;;;;;;10.52;1.52;;;13.10;99.90;;;;;;5006235;28;20053;-76
2022/07/10 03:08:12;;;;;;;10.15;1.67;;;13.10;99.90;;;;;;4976381;28;20041;-75
2022/07/10 03:10:38;;;;;;;9.73;1.60;;;13.10;99.90;;;;;;4990873;28;20519;-76
2022/07/10 03:13:04;;;;;;;10.98;1.58;;;13.00;99.90;;;;;;4987925;28;20588;-74
2022/07/10 03:15:30;;;;;;;9.25;1.88;;;13.00;99.90;;;;;;4974358;28;20053;-76
2022/07/10 03:17:59;;;;;;;7.78;1.90;;;13.10;99.90;;;;;;4960146;28;20586;-76
2022/07/10 03:20:24;;;;;;;9.23;1.85;;;13.10;99.90;;;;;;4966936;28;20060;-77
2022/07/10 03:22:50;;;;;;;9.23;2.03;;;13.10;99.90;;;;;;4976517;28;20097;-74
2022/07/10 03:25:16;;;;;;;13.30;1.70;;;13.20;99.90;;;;;;4989518;28;20050;-77
2022/07/10 03:27:42;;;;;;;10.27;1.98;;;13.20;99.90;;;;;;4990276;28;20065;-74
2022/07/10 03:30:08;;;;;;;8.73;1.48;;;13.30;99.90;;;;;;4992433;28;20566;-75
2022/07/10 03:32:34;;;;;;;14.77;1.67;;;13.30;99.90;;;;;;4984583;28;20062;-75
2022/07/10 03:35:00;;;;;;;13.38;2.05;;;13.40;99.90;;;;;;4979139;28;20500;-73
2022/07/10 03:37:27;;;;;;;7.70;1.63;;;13.40;99.90;;;;;;4983296;28;20097;-76
2022/07/10 03:39:53;;;;;;;10.23;2.10;;;13.50;99.90;;;;;;4999269;28;20056;-77
2022/07/10 03:42:18;;;;;;;10.07;1.92;;;13.60;99.90;;;;;;4978689;28;20795;-73
2022/07/10 03:44:45;;;;;;;13.13;1.80;;;13.60;99.90;;;;;;4980979;28;20054;-74
2022/07/10 03:47:11;;;;;;;10.23;1.90;;;13.70;99.90;;;;;;4980726;28;20492;-75
2022/07/10 03:49:38;;;;;;;9.20;1.90;;;13.70;99.90;;;;;;4983122;28;20054;-74
2022/07/10 03:52:04;;;;;;;11.18;1.70;;;13.80;99.90;;;;;;4962910;28;20042;-76
2022/07/10 03:54:31;;;;;;;17.10;2.67;;;13.80;99.90;;;;;;4980021;28;20052;-75
2022/07/10 03:59:42;;;;;;;9.73;1.77;;;13.90;99.90;;;;;;4950834;28;20053;-77
2022/07/10 04:02:08;;;;;;;15.63;1.90;;;14.00;99.90;;;;;;4959499;28;20124;-79
2022/07/10 04:04:34;;;;;;;14.77;2.90;;;14.00;99.90;;;;;;4960513;28;20107;-75
2022/07/10 04:07:00;;;;;;;9.82;2.30;;;14.10;99.90;;;;;;4979661;28;20125;-76
2022/07/10 04:09:25;;;;;;;10.82;2.00;;;14.10;99.90;;;;;;4968847;28;20052;-74
2022/07/10 04:11:51;;;;;;;8.98;1.95;;;14.20;99.90;;;;;;4966839;28;20121;-77
2022/07/10 04:14:17;;;;;;;13.82;2.38;;;14.20;99.90;;;;;;4948262;28;20065;-77
2022/07/10 04:16:43;;;;;;;13.90;2.95;;;14.20;99.90;;;;;;4962494;28;20046;-76
2022/07/10 04:19:09;;;;;;;18.33;2.42;;;14.30;99.90;;;;;;4945853;28;20099;-76
2022/07/10 04:21:36;;;;;;;9.07;2.08;;;14.30;99.90;;;;;;4979050;28;20058;-76
2022/07/10 04:24:03;;;;;;;15.45;2.63;;;14.40;99.90;;;;;;4962033;28;20128;-76
2022/07/10 04:26:29;;;;;;;10.30;2.10;;;14.40;99.90;;;;;;4976306;28;20128;-74
2022/07/10 04:28:55;;;;;;;20.90;2.50;;;14.40;99.90;;;;;;4993193;28;20675;-75
2022/07/10 04:31:21;;;;;;;12.52;2.10;;;14.50;99.90;;;;;;4963088;28;20092;-75
2022/07/10 04:33:47;;;;;;;14.02;2.15;;;14.50;99.90;;;;;;4966197;28;20045;-75
2022/07/10 04:36:13;;;;;;;11.98;2.03;;;14.50;99.90;;;;;;4961518;28;21321;-74
2022/07/10 04:38:38;;;;;;;13.77;2.05;;;14.50;99.90;;;;;;4959409;28;20400;-74
2022/07/10 04:41:05;;;;;;;7.60;1.75;;;14.60;99.90;;;;;;4978811;28;20048;-75
2022/07/10 04:43:31;;;;;;;12.25;2.42;;;14.60;99.90;;;;;;4966883;28;20045;-76
2022/07/10 04:45:57;;;;;;;12.65;1.83;;;14.60;99.90;;;;;;4967759;28;20092;-76
2022/07/10 04:48:23;;;;;;;11.95;2.17;;;14.70;99.90;;;;;;4973473;28;20157;-76
2022/07/10 04:50:49;;;;;;;9.05;1.65;;;14.70;99.90;;;;;;4973136;28;20044;-77
2022/07/10 04:53:15;;;;;;;7.20;1.80;;;14.80;99.90;;;;;;4985203;28;20053;-74
2022/07/10 04:55:40;;;;;;;9.25;1.90;;;14.80;99.90;;;;;;4971316;28;20172;-75
2022/07/10 04:58:06;;;;;;;8.27;1.55;;;14.80;99.90;;;;;;4992281;28;20670;-74
2022/07/10 05:00:32;;;;;;;10.18;1.85;;;14.90;99.90;;;;;;5002402;28;20077;-73
2022/07/10 05:02:58;;;;;;;9.70;1.77;;;14.90;99.90;;;;;;4985245;28;20061;-75
2022/07/10 05:05:24;;;;;;;7.30;1.50;;;14.90;99.90;;;;;;4983077;28;20132;-76
2022/07/10 05:07:49;;;;;;;9.60;1.85;;;14.90;99.90;;;;;;4969940;28;20583;-75
2022/07/10 05:10:15;;;;;;;13.82;2.10;;;15.00;99.90;;;;;;4987951;28;20492;-75
2022/07/10 05:12:41;;;;;;;9.80;1.90;;;15.00;99.90;;;;;;4989201;28;20048;-76
2022/07/10 05:15:07;;;;;;;7.90;1.60;;;15.00;99.90;;;;;;4970249;28;20041;-76
2022/07/10 05:17:33;;;;;;;5.43;1.70;;;15.00;99.90;;;;;;4989818;28;20064;-75
2022/07/10 05:19:59;;;;;;;14.40;1.88;;;15.00;99.90;;;;;;4953743;28;20050;-76
2022/07/10 05:22:25;;;;;;;7.80;1.60;;;15.00;99.90;;;;;;4985666;28;20060;-75
2022/07/10 05:24:51;;;;;;;9.52;1.63;;;15.00;99.90;;;;;;4986004;28;20470;-78
2022/07/10 05:27:19;;;;;;;11.18;1.60;;;15.10;99.90;;;;;;4972292;28;20069;-79
2022/07/10 05:29:46;;;;;;;9.90;2.78;;;15.10;99.90;;;;;;4988028;28;20409;-79
2022/07/10 05:32:12;;;;;;;9.90;1.70;;;15.10;99.90;;;;;;4963160;28;20947;-75
2022/07/10 05:34:38;;;;;;;11.25;1.63;;;15.20;99.90;;;;;;4978345;28;20050;-77
2022/07/10 05:37:04;;;;;;;12.65;2.05;;;15.20;99.90;;;;;;4963570;28;20391;-78
2022/07/10 05:39:30;;;;;;;12.85;2.10;;;15.20;99.90;;;;;;4980846;28;20523;-78
2022/07/10 05:41:57;;;;;;;9.20;2.42;;;15.30;99.90;;;;;;4958509;28;20046;-76
2022/07/10 05:44:23;;;;;;;11.35;2.15;;;15.40;99.90;;;;;;4982987;28;20092;-76
2022/07/10 05:46:49;;;;;;;10.93;2.65;;;15.40;99.90;;;;;;4988216;28;20496;-75
2022/07/10 05:49:15;;;;;;;10.88;2.80;;;15.40;99.90;;;;;;4989703;28;21144;-75
2022/07/10 05:51:42;;;;;;;11.20;2.10;;;15.50;99.90;;;;;;4936001;28;20053;-75
2022/07/10 05:54:08;;;;;;;9.10;1.95;;;15.50;99.90;;;;;;4961726;28;20060;-77
2022/07/10 05:56:34;;;;;;;8.75;1.95;;;15.50;99.90;;;;;;4989294;28;20624;-79
2022/07/10 05:59:00;;;;;;;6.75;1.42;;;15.50;99.90;;;;;;4990644;28;20049;-75
2022/07/10 06:01:26;;;;;;;7.50;1.50;;;15.50;99.90;;;;;;4972956;28;20061;-79
2022/07/10 06:03:52;;;;;;;12.18;2.22;;;15.50;99.90;;;;;;4974143;28;20100;-79
2022/07/10 06:06:18;;;;;;;6.55;1.52;;;15.50;99.90;;;;;;4980008;28;20052;-78
2022/07/10 06:08:44;;;;;;;9.23;2.05;;;15.50;99.90;;;;;;5000465;28;20046;-80
2022/07/10 06:11:10;;;;;;;10.70;1.75;;;15.40;99.90;;;;;;4999315;28;20042;-81
2022/07/10 06:13:37;;;;;;;13.15;1.70;;;15.40;99.90;;;;;;4992445;28;20053;-75
2022/07/10 06:16:04;;;;;;;10.70;1.63;;;15.40;99.90;;;;;;4977200;28;20050;-77
2022/07/10 06:18:31;;;;;;;8.20;1.80;;;15.50;99.90;;;;;;4975451;28;20508;-81
2022/07/10 06:20:57;;;;;;;14.07;2.25;;;15.60;99.90;;;;;;4990449;28;20050;-81
2022/07/10 06:23:23;;;;;;;14.25;2.38;;;15.60;99.90;;;;;;4984092;28;20046;-74
2022/07/10 06:25:49;;;;;;;6.72;1.80;;;15.60;99.90;;;;;;4988819;28;20061;-76
2022/07/10 06:28:18;;;;;;;25.92;2.45;;;15.70;99.90;;;;;;5008487;28;20056;-81
2022/07/10 06:30:46;;;;;;;8.27;1.77;;;15.70;99.90;;;;;;4987860;28;20050;-81
2022/07/10 06:33:12;;;;;;;9.02;2.42;;;15.70;99.90;;;;;;4998447;28;20717;-79
2022/07/10 06:35:38;;;;;;;11.80;1.60;;;15.70;99.90;;;;;;4985200;28;20414;-79
2022/07/10 06:38:04;;;;;;;3.60;1.45;;;15.70;99.90;;;;;;4988084;28;20496;-76
2022/07/10 06:40:31;;;;;;;10.18;1.92;;;15.60;99.90;;;;;;4971371;28;20104;-78
2022/07/10 06:42:58;;;;;;;7.45;1.30;;;15.70;99.90;;;;;;4957952;28;20057;-75
2022/07/10 06:45:24;;;;;;;8.32;1.77;;;15.70;99.90;;;;;;4992040;28;20080;-81
2022/07/10 06:47:56;;;;;;;9.57;1.30;;;15.70;99.90;;;;;;4965391;28;20061;-75
2022/07/10 06:50:23;;;;;;;8.25;1.63;;;15.70;99.90;;;;;;4939514;28;20124;-80
2022/07/10 06:52:50;;;;;;;9.18;1.80;;;15.70;99.90;;;;;;4972068;28;20048;-81
2022/07/10 06:55:18;;;;;;;8.10;1.50;;;15.70;99.90;;;;;;5004425;28;20053;-78
2022/07/10 06:57:43;;;;;;;7.18;1.58;;;15.80;99.90;;;;;;4965764;28;20108;-80
2022/07/10 07:00:11;;;;;;;10.27;1.77;;;15.80;99.90;;;;;;4990378;28;20053;-79
2022/07/10 07:02:37;;;;;;;8.75;1.52;;;15.90;99.90;;;;;;4989294;28;20053;-76
2022/07/10 07:05:04;;;;;;;6.43;1.52;;;15.90;99.90;;;;;;4953631;28;20049;-80
2022/07/10 07:07:29;;;;;;;9.75;1.80;;;15.90;99.90;;;;;;4966694;28;20502;-76
2022/07/10 07:09:55;;;;;;;6.22;1.65;;;15.90;99.90;;;;;;4966819;28;20521;-79
2022/07/10 07:12:21;;;;;;;4.47;1.33;;;16.00;99.90;;;;;;4972476;28;20460;-81
2022/07/10 07:14:47;;;;;;;6.05;1.40;;;15.90;99.90;;;;;;4948181;28;20086;-79
2022/07/10 07:17:14;;;;;;;5.25;1.40;;;15.80;99.90;;;;;;4985101;28;20054;-78
2022/07/10 07:25:10;;;;;;;12.88;1.83;;;15.70;99.90;;;;;;4998674;28;20120;-81
2022/07/10 07:27:38;;;;;;;6.22;1.60;;;15.70;99.90;;;;;;5000290;28;20049;-79
2022/07/10 07:30:10;;;;;;;7.88;1.77;;;15.70;99.90;;;;;;4997551;28;20050;-83
2022/07/10 07:32:37;;;;;;;5.78;1.70;;;15.80;99.90;;;;;;4982081;28;21166;-79
2022/07/10 07:35:05;;;;;;;7.53;1.58;;;15.80;99.90;;;;;;4991535;28;20046;-77
2022/07/10 07:37:41;;;;;;;7.40;1.95;;;15.90;99.90;;;;;;4991627;28;20140;-81
2022/07/10 07:40:10;;;;;;;6.93;1.50;;;15.90;99.90;;;;;;4954698;28;20050;-79
2022/07/10 07:42:36;;;;;;;5.20;1.35;;;16.00;99.90;;;;;;5009029;28;20123;-82
2022/07/10 07:45:03;;;;;;;5.32;1.27;;;16.00;99.90;;;;;;4994002;28;20701;-81
2022/07/10 07:47:30;;;;;;;5.57;1.50;;;16.10;99.90;;;;;;4993487;28;20046;-76
2022/07/10 07:49:56;;;;;;;4.85;1.27;;;16.10;99.90;;;;;;4979212;28;20045;-81
2022/07/10 07:52:22;;;;;;;8.10;1.58;;;16.20;99.90;;;;;;4986812;28;20081;-79
2022/07/10 07:54:50;;;;;;;3.90;1.10;;;16.20;99.90;;;;;;4968110;28;20060;-83
2022/07/10 07:57:16;;;;;;;9.15;1.75;;;16.20;99.90;;;;;;4981577;28;20050;-76
2022/07/10 07:59:42;;;;;;;5.85;1.30;;;16.20;99.90;;;;;;4965868;28;20053;-82
2022/07/10 08:02:08;;;;;;;4.25;1.10;;;16.30;99.90;;;;;;4973434;28;20041;-82
2022/07/10 08:04:34;;;;;;;8.18;1.38;;;16.30;99.90;;;;;;5000677;28;20511;-75
2022/07/10 08:07:02;;;;;;;9.20;1.33;;;16.40;99.90;;;;;;4968733;28;20475;-81
2022/07/10 08:09:28;;;;;;;5.18;1.20;;;16.40;99.90;;;;;;4960443;28;20049;-82
2022/07/10 08:11:53;;;;;;;8.50;1.40;;;16.30;99.90;;;;;;4983304;28;20139;-82
2022/07/10 08:14:19;;;;;;;9.93;1.90;;;16.30;99.90;;;;;;5001985;28;20065;-83
2022/07/10 08:16:45;;;;;;;10.18;1.50;;;16.30;99.90;;;;;;4985419;28;20045;-83
2022/07/10 08:19:14;;;;;;;7.28;1.38;;;16.30;99.90;;;;;;5000996;28;20050;-80
2022/07/10 08:21:39;;;;;;;10.90;1.50;;;16.40;99.90;;;;;;4997999;28;20081;-81
2022/07/10 08:24:05;;;;;;;5.32;1.17;;;16.50;99.90;;;;;;5000600;28;20631;-79
2022/07/10 08:26:31;;;;;;;2.58;0.90;;;16.70;99.90;;;;;;5000205;28;20080;-80
2022/07/10 08:28:57;;;;;;;1.90;0.73;;;16.70;99.90;;;;;;4985735;28;20045;-83
2022/07/10 08:31:23;;;;;;;4.68;0.70;;;16.80;99.90;;;;;;4981531;28;20057;-81
2022/07/10 08:33:51;;;;;;;3.53;0.80;;;16.90;99.90;;;;;;4976793;28;20046;-80
2022/07/10 08:36:16;;;;;;;2.47;0.80;;;16.90;99.90;;;;;;5011375;28;20050;-81
2022/07/10 08:38:42;;;;;;;2.78;0.70;;;17.00;99.90;;;;;;4975829;28;20050;-77
2022/07/10 08:41:10;;;;;;;5.72;0.80;;;17.00;99.90;;;;;;4992025;28;20049;-82
2022/07/10 08:43:37;;;;;;;6.85;1.05;;;17.00;99.90;;;;;;4957499;28;20503;-80
2022/07/10 08:46:04;;;;;;;2.35;0.77;;;17.00;99.90;;;;;;4990402;28;20926;-82
2022/07/10 08:48:33;;;;;;;3.30;0.70;;;17.00;99.90;;;;;;4987929;28;20041;-81
2022/07/10 08:51:04;;;;;;;2.63;0.70;;;17.10;99.90;;;;;;4990543;28;20080;-78
2022/07/10 08:53:31;;;;;;;5.68;1.27;;;17.10;99.90;;;;;;4985666;28;20431;-75
2022/07/10 08:55:58;;;;;;;4.75;1.00;;;17.20;99.90;;;;;;4988957;28;20050;-83
2022/07/10 08:58:25;;;;;;;5.75;1.00;;;17.20;99.90;;;;;;4968949;28;20062;-83
2022/07/10 09:00:51;;;;;;;2.72;1.00;;;17.30;99.90;;;;;;4990172;28;20073;-77
2022/07/10 09:03:17;;;;;;;3.20;0.85;;;17.40;99.90;;;;;;4967252;28;20125;-82
2022/07/10 09:05:43;;;;;;;2.50;0.70;;;17.50;99.90;;;;;;4987460;28;20050;-76
2022/07/10 09:08:31;;;;;;;9.30;1.00;;;17.60;99.90;;;;;;4984397;28;20038;-80
2022/07/10 09:11:17;;;;;;;5.03;0.90;;;17.60;99.90;;;;;;4958807;28;20108;-79
2022/07/10 09:13:57;;;;;;;3.03;0.77;;;17.70;99.90;;;;;;5000175;28;20061;-76
2022/07/10 09:16:28;;;;;;;2.75;0.90;;;17.80;99.90;;;;;;5010484;28;20114;-79
2022/07/10 09:18:54;;;;;;;4.63;0.90;;;17.80;99.90;;;;;;4996086;28;20080;-83
2022/07/10 09:21:20;;;;;;;2.55;0.80;;;17.80;99.90;;;;;;4994317;28;20049;-80
2022/07/10 09:23:47;;;;;;;5.20;1.05;;;17.90;99.90;;;;;;4975041;28;20045;-80
2022/07/10 09:26:13;;;;;;;2.85;0.90;;;17.90;99.90;;;;;;4981454;28;20053;-83
2022/07/10 09:28:38;;;;;;;3.55;0.98;;;17.90;99.90;;;;;;4992794;28;20042;-83
2022/07/10 09:31:05;;;;;;;6.13;1.10;;;17.80;99.90;;;;;;4986827;28;20056;-78
2022/07/10 09:33:33;;;;;;;5.65;1.45;;;17.70;99.90;;;;;;4990503;28;20053;-82
2022/07/10 09:36:10;;;;;;;5.95;1.35;;;17.60;99.90;;;;;;5007751;28;20045;-78
2022/07/10 09:38:42;;;;;;;3.60;1.17;;;17.50;99.90;;;;;;4989553;28;20111;-81
2022/07/10 09:41:23;;;;;;;3.80;1.40;;;17.50;99.90;;;;;;4973819;28;20096;-85
2022/07/10 09:44:03;;;;;;;5.03;1.50;;;17.50;99.90;;;;;;4943096;28;20050;-77
2022/07/10 09:46:35;;;;;;;7.75;1.60;;;17.50;99.90;;;;;;4985032;28;20250;-80
2022/07/10 09:49:09;;;;;;;6.53;1.30;;;17.40;99.90;;;;;;4964331;28;20049;-82
2022/07/10 09:51:45;;;;;;;5.63;1.50;;;17.30;99.90;;;;;;4985877;28;20045;-84
2022/07/10 09:54:12;;;;;;;5.13;1.42;;;17.30;99.90;;;;;;4986918;28;20120;-77
2022/07/10 09:56:37;;;;;;;4.53;1.33;;;17.30;99.90;;;;;;4988251;28;20463;-77
2022/07/10 09:59:09;;;;;;;6.20;1.65;;;17.30;99.90;;;;;;4985884;28;20500;-79
2022/07/10 10:01:37;;;;;;;6.18;1.58;;;17.30;99.90;;;;;;4973506;28;20152;-85
2022/07/10 10:04:04;;;;;;;4.28;1.58;;;17.30;99.90;;;;;;4991401;28;20211;-84
2022/07/10 10:06:32;;;;;;;6.50;1.77;;;17.20;99.90;;;;;;4985734;28;20100;-77
2022/07/10 10:09:08;;;;;;;5.68;1.63;;;17.30;99.90;;;;;;4966511;28;20142;-84
2022/07/10 10:11:36;;;;;;;7.63;1.65;;;17.40;99.90;;;;;;4965849;28;20119;-84
2022/07/10 10:14:03;;;;;;;12.45;2.05;;;17.40;99.90;;;;;;4987233;28;20045;-85
2022/07/10 10:16:30;;;;;;;6.72;1.98;;;17.40;99.90;;;;;;4995479;28;20072;-75
2022/07/10 10:21:41;;;;;;;5.35;1.38;;;17.30;99.90;;;;;;5006361;28;20089;-82
2022/07/10 10:24:08;;;;;;;7.25;1.50;;;17.20;99.90;;;;;;4993371;28;20051;-84
2022/07/10 10:26:33;;;;;;;4.68;1.50;;;17.30;99.90;;;;;;4975597;28;20086;-78
2022/07/10 10:29:01;;;;;;;6.68;2.03;;;17.30;99.90;;;;;;4966905;28;20046;-83
2022/07/10 10:31:30;;;;;;;7.13;2.60;;;17.50;99.90;;;;;;4987035;28;20046;-84
2022/07/10 10:33:57;;;;;;;9.20;2.22;;;17.70;99.90;;;;;;4971736;28;20121;-84
2022/07/10 10:36:47;;;;;;;6.88;2.10;;;18.00;99.90;;;;;;4990948;28;20046;-81
2022/07/10 10:39:13;;;;;;;9.25;2.60;;;18.10;99.90;;;;;;4974206;28;20084;-81
2022/07/10 10:41:47;;;;;;;9.75;2.00;;;18.00;99.90;;;;;;5001169;28;20050;-79
2022/07/10 10:44:16;;;;;;;7.60;1.77;;;18.00;99.90;;;;;;5000062;28;20059;-80
2022/07/10 10:46:56;;;;;;;9.73;2.40;;;17.90;99.90;;;;;;4995933;28;20050;-71
2022/07/10 10:49:25;;;;;;;7.80;1.98;;;17.80;99.90;;;;;;4993265;28;20504;-71
2022/07/10 10:52:08;;;;;;;6.45;1.92;;;17.60;99.90;;;;;;4975804;28;20441;-71
2022/07/10 10:54:56;;;;;;;5.88;2.00;;;17.60;99.90;;;;;;5012613;28;20073;-71
2022/07/10 10:57:37;;;;;;;8.98;1.73;;;17.50;99.90;;;;;;5017371;28;20084;-72
2022/07/10 11:00:07;;;;;;;7.68;1.88;;;17.40;99.90;;;;;;4984430;28;20149;-70
2022/07/10 11:02:36;;;;;;;8.25;2.10;;;17.50;99.90;;;;;;5017290;28;20705;-71
2022/07/10 11:05:14;;;;;;;4.90;1.92;;;17.60;99.90;;;;;;4988640;28;20064;-70
2022/07/10 11:08:02;;;;;;;3.95;1.80;;;17.70;99.90;;;;;;4980946;28;20048;-70
2022/07/10 11:10:36;;;;;;;9.52;2.42;;;17.90;99.90;;;;;;5008426;28;20099;-70
2022/07/10 11:13:07;;;;;;;9.10;1.98;;;18.10;99.90;;;;;;4996085;28;20459;-71
2022/07/10 11:15:36;;;;;;;10.00;1.98;;;18.30;99.90;;;;;;4993940;28;20060;-70
2022/07/10 11:18:07;;;;;;;4.35;1.90;;;18.40;99.90;;;;;;4971549;28;20543;-71
2022/07/10 11:20:41;;;;;;;9.00;1.77;;;18.60;99.90;;;;;;4998822;28;20050;-71
2022/07/10 11:23:24;;;;;;;5.60;2.00;;;18.70;99.90;;;;;;4972396;28;20112;-71
2022/07/10 11:26:11;;;;;;;5.72;1.52;;;18.70;99.90;;;;;;4966263;28;20089;-70
2022/07/10 11:29:01;;;;;;;3.50;1.30;;;18.70;99.90;;;;;;4995184;28;20570;-60
2022/07/10 11:31:27;;;;;;;5.95;1.70;;;18.60;99.90;;;;;;4996624;28;20045;-60
2022/07/10 11:33:55;;;;;;;6.60;1.55;;;18.60;99.90;;;;;;4996915;28;20485;-60
2022/07/10 11:36:26;;;;;;;5.95;1.60;;;18.50;99.90;;;;;;5012967;28;20484;-60
2022/07/10 11:39:06;;;;;;;7.22;1.83;;;18.60;99.90;;;;;;4999904;28;20555;-61
2022/07/10 11:41:32;;;;;;;5.20;1.50;;;18.70;99.90;;;;;;4992042;28;20038;-60
2022/07/10 11:44:03;;;;;;;8.02;1.50;;;18.70;99.90;;;;;;4993801;28;20080;-61
2022/07/10 11:46:34;;;;;;;8.20;2.00;;;18.60;99.90;;;;;;5012204;28;20048;-61
2022/07/10 11:49:05;;;;;;;4.88;1.50;;;18.60;99.90;;;;;;4999673;28;20045;-60
2022/07/10 11:51:41;;;;;;;6.05;1.60;;;18.40;99.90;;;;;;4999865;28;20049;-60
2022/07/10 11:54:11;;;;;;;8.05;1.65;;;18.40;99.90;;;;;;4999490;28;20056;-61
2022/07/10 11:56:41;;;;;;;8.85;1.65;;;18.40;99.90;;;;;;4998996;28;20521;-61
2022/07/10 11:59:09;;;;;;;4.72;1.65;;;18.30;99.90;;;;;;5001214;28;20057;-60
2022/07/10 12:01:41;;;;;;;5.60;1.70;;;18.40;99.90;;;;;;4996769;28;20052;-61
2022/07/10 12:04:09;;;;;;;7.35;1.38;;;18.40;99.90;;;;;;5000781;28;20050;-62
2022/07/10 12:06:40;;;;;;;4.13;1.17;;;18.40;99.90;;;;;;4994019;28;20053;-61
2022/07/10 12:09:12;;;;;;;5.35;1.55;;;18.40;99.90;;;;;;4999046;28;20042;-60
2022/07/10 12:11:38;;;;;;;9.00;1.60;;;18.30;99.90;;;;;;4969851;28;20046;-62
2022/07/10 12:14:18;;;;;;;5.18;1.30;;;18.40;99.90;;;;;;4995430;28;20301;-61
2022/07/10 12:16:54;;;;;;;8.15;1.52;;;18.50;99.90;;;;;;4998756;28;20120;-61
2022/07/10 12:19:27;;;;;;;4.25;1.10;;;18.60;99.90;;;;;;4996200;28;20049;-61
2022/07/10 12:21:54;;;;;;;6.60;1.30;;;18.60;99.90;;;;;;4987887;28;20730;-61
2022/07/10 12:24:20;;;;;;;4.30;1.45;;;18.60;99.90;;;;;;5014259;28;20049;-61
2022/07/10 12:26:47;;;;;;;5.28;1.20;;;18.60;99.90;;;;;;4994131;28;20083;-60
2022/07/10 12:29:22;;;;;;;6.63;1.55;;;18.50;99.90;;;;;;4998337;28;20096;-61
2022/07/10 12:31:49;;;;;;;4.72;1.20;;;18.50;99.90;;;;;;5000861;28;20053;-61
2022/07/10 12:34:16;;;;;;;5.22;1.40;;;18.40;99.90;;;;;;4990950;28;20044;-61
2022/07/10 12:36:50;;;;;;;3.58;1.42;;;18.40;99.90;;;;;;4971801;28;20053;-59
2022/07/10 12:39:24;;;;;;;4.93;1.40;;;18.30;99.90;;;;;;4985091;28;20053;-59
2022/07/10 12:42:02;;;;;;;4.57;1.30;;;18.20;99.90;;;;;;4988384;28;20061;-61
2022/07/10 12:44:48;;;;;;;3.08;1.33;;;18.20;99.90;;;;;;4991216;28;20042;-61
2022/07/10 12:47:19;;;;;;;5.47;2.00;;;18.10;99.90;;;;;;4992926;28;20080;-60
2022/07/10 12:50:03;;;;;;;6.60;1.33;;;18.00;99.90;;;;;;4996492;28;20068;-61
2022/07/10 12:52:31;;;;;;;3.90;1.67;;;17.90;99.90;;;;;;4994467;28;20124;-60
2022/07/10 12:55:11;;;;;;;5.43;1.90;;;17.80;99.90;;;;;;4993184;28;20049;-60
2022/07/10 12:57:50;;;;;;;5.55;1.80;;;17.70;99.90;;;;;;4997062;28;20046;-60